createdAt,value
2019-01-23T00:00:32.191Z,-2.80
2019-01-23T00:03:01.795Z,-2.90
2019-01-23T00:05:31.283Z,-2.90
2019-01-23T00:08:00.833Z,-2.90
2019-01-23T00:10:30.198Z,-2.80
2019-01-23T00:12:59.589Z,-2.90
2019-01-23T00:15:29.078Z,-2.90
2019-01-23T00:17:58.805Z,-2.90
2019-01-23T00:20:28.132Z,-2.90
2019-01-23T00:22:57.482Z,-2.80
2019-01-23T00:25:27.275Z,-2.80
2019-01-23T00:27:56.972Z,-2.80
2019-01-23T00:30:26.380Z,-2.90
2019-01-23T00:32:55.808Z,-2.90
2019-01-23T00:35:25.313Z,-2.80
2019-01-23T00:37:54.909Z,-2.80
2019-01-23T00:40:24.377Z,-2.80
2019-01-23T00:42:53.865Z,-2.80
2019-01-23T00:45:23.387Z,-2.80
2019-01-23T00:47:52.986Z,-2.80
2019-01-23T00:50:22.324Z,-2.90
2019-01-23T00:52:51.685Z,-2.90
2019-01-23T00:55:21.059Z,-2.90
2019-01-23T00:57:50.510Z,-2.90
2019-01-23T01:00:25.532Z,-2.80
2019-01-23T01:02:55.470Z,-2.70
2019-01-23T01:05:24.816Z,-2.80
2019-01-23T01:07:54.474Z,-2.80
2019-01-23T01:10:23.808Z,-2.80
2019-01-23T01:12:53.274Z,-2.80
2019-01-23T01:15:22.672Z,-3.00
2019-01-23T01:17:51.981Z,-2.90
2019-01-23T01:20:21.475Z,-2.90
2019-01-23T01:22:50.835Z,-2.90
2019-01-23T01:25:21.056Z,-2.90
2019-01-23T01:27:50.454Z,-2.90
2019-01-23T01:30:22.669Z,-2.90
2019-01-23T01:32:52.009Z,-2.90
2019-01-23T01:35:21.307Z,-2.90
2019-01-23T01:37:50.646Z,-2.90
2019-01-23T01:40:20.171Z,-3.00
2019-01-23T01:42:49.486Z,-3.00
2019-01-23T01:45:18.863Z,-3.00
2019-01-23T01:47:48.308Z,-2.90
2019-01-23T01:50:19.326Z,-3.00
2019-01-23T01:52:48.974Z,-3.00
2019-01-23T01:55:18.280Z,-2.90
2019-01-23T01:57:48.503Z,-2.90
2019-01-23T02:00:20.266Z,-2.90
2019-01-23T02:02:49.735Z,-2.90
2019-01-23T02:05:19.214Z,-2.90
2019-01-23T02:07:48.524Z,-2.80
2019-01-23T02:10:19.371Z,-2.80
2019-01-23T02:12:49.263Z,-2.80
2019-01-23T02:15:18.702Z,-2.80
2019-01-23T02:17:48.155Z,-2.80
2019-01-23T02:20:22.230Z,-2.80
2019-01-23T02:22:52.510Z,-2.80
2019-01-23T02:25:23.070Z,-2.80
2019-01-23T02:27:52.714Z,-2.80
2019-01-23T02:30:23.287Z,-2.90
2019-01-23T02:32:52.651Z,-2.90
2019-01-23T02:35:22.098Z,-2.90
2019-01-23T02:37:51.683Z,-2.80
2019-01-23T02:40:21.760Z,-2.80
2019-01-23T02:42:51.159Z,-2.90
2019-01-23T02:45:20.456Z,-2.90
2019-01-23T02:47:50.004Z,-2.90
2019-01-23T02:50:19.337Z,-3.00
2019-01-23T02:52:48.640Z,-2.90
2019-01-23T02:55:18.036Z,-2.90
2019-01-23T02:57:47.556Z,-3.00
2019-01-23T03:00:18.194Z,-2.90
2019-01-23T03:02:47.967Z,-2.90
2019-01-23T03:05:18.911Z,-2.90
2019-01-23T03:07:48.270Z,-2.90
2019-01-23T03:10:18.932Z,-2.80
2019-01-23T03:12:48.395Z,-2.90
2019-01-23T03:15:18.190Z,-3.00
2019-01-23T03:17:47.543Z,-2.90
2019-01-23T03:20:17.927Z,-2.80
2019-01-23T03:22:47.386Z,-2.80
2019-01-23T03:25:16.827Z,-2.90
2019-01-23T03:27:46.161Z,-2.90
2019-01-23T03:30:17.766Z,-2.90
2019-01-23T03:32:47.293Z,-2.80
2019-01-23T03:35:16.878Z,-2.80
2019-01-23T03:37:46.581Z,-2.90
2019-01-23T03:40:20.709Z,-3.10
2019-01-23T03:42:50.170Z,-3.00
2019-01-23T03:45:19.657Z,-3.00
2019-01-23T03:47:49.219Z,-2.90
2019-01-23T03:50:19.960Z,-2.80
2019-01-23T03:52:49.315Z,-2.80
2019-01-23T03:55:19.222Z,-2.80
2019-01-23T03:57:48.859Z,-2.80
2019-01-23T04:00:20.693Z,-2.80
2019-01-23T04:02:51.043Z,-2.90
2019-01-23T04:05:21.535Z,-3.00
2019-01-23T04:07:50.824Z,-2.90
2019-01-23T04:10:20.121Z,-2.90
2019-01-23T04:12:49.468Z,-2.90
2019-01-23T04:15:18.850Z,-2.90
2019-01-23T04:17:48.268Z,-2.80
2019-01-23T04:20:22.296Z,-2.80
2019-01-23T04:22:51.852Z,-2.80
2019-01-23T04:25:21.185Z,-2.80
2019-01-23T04:27:50.525Z,-2.70
2019-01-23T04:30:22.838Z,-2.70
2019-01-23T04:32:52.166Z,-2.70
2019-01-23T04:35:21.471Z,-2.60
2019-01-23T04:37:50.902Z,-2.60
2019-01-23T04:40:20.249Z,-2.50
2019-01-23T04:42:49.685Z,-2.60
2019-01-23T04:45:19.111Z,-2.60
2019-01-23T04:47:48.480Z,-2.50
2019-01-23T04:50:18.740Z,-2.50
2019-01-23T04:52:49.935Z,-2.40
2019-01-23T04:55:19.557Z,-2.30
2019-01-23T04:57:48.863Z,-2.30
2019-01-23T05:00:22.587Z,-2.40
2019-01-23T05:02:51.928Z,-2.30
2019-01-23T05:05:21.275Z,-2.20
2019-01-23T05:07:50.740Z,-2.20
2019-01-23T05:10:20.180Z,-2.20
2019-01-23T05:12:50.544Z,-2.20
2019-01-23T05:15:19.889Z,-2.20
2019-01-23T05:17:49.380Z,-2.20
2019-01-23T05:20:18.838Z,-2.20
2019-01-23T05:22:48.176Z,-2.30
2019-01-23T05:25:17.496Z,-2.30
2019-01-23T05:27:46.915Z,-2.40
2019-01-23T05:30:19.524Z,-2.40
2019-01-23T05:32:48.835Z,-2.30
2019-01-23T05:35:18.515Z,-2.30
2019-01-23T05:37:48.166Z,-2.30
2019-01-23T05:40:17.846Z,-2.30
2019-01-23T05:42:47.175Z,-2.30
2019-01-23T05:45:16.703Z,-2.30
2019-01-23T05:47:46.296Z,-2.30
2019-01-23T05:50:17.972Z,-2.30
2019-01-23T05:52:48.458Z,-2.30
2019-01-23T05:55:17.914Z,-2.30
2019-01-23T05:57:47.192Z,-2.20
2019-01-23T06:00:18.923Z,-2.20
2019-01-23T06:02:48.307Z,-2.20
2019-01-23T06:05:18.342Z,-2.30
2019-01-23T06:07:47.706Z,-2.30
2019-01-23T06:10:17.014Z,-2.30
2019-01-23T06:12:46.331Z,-2.30
2019-01-23T06:15:17.004Z,-2.40
2019-01-23T06:17:46.306Z,-2.40
2019-01-23T06:20:18.316Z,-2.40
2019-01-23T06:22:47.707Z,-2.30
2019-01-23T06:25:17.092Z,-2.30
2019-01-23T06:27:47.482Z,-2.20
2019-01-23T06:30:22.553Z,-2.20
2019-01-23T06:32:51.975Z,-2.20
2019-01-23T06:35:21.283Z,-2.20
2019-01-23T06:37:50.590Z,-2.20
2019-01-23T06:40:19.948Z,-2.20
2019-01-23T06:42:49.288Z,-2.10
2019-01-23T06:45:19.076Z,-2.10
2019-01-23T06:47:50.047Z,-2.10
2019-01-23T06:50:22.658Z,-2.00
2019-01-23T06:52:52.087Z,-1.90
2019-01-23T06:55:21.570Z,-2.00
2019-01-23T06:57:52.039Z,-2.00
2019-01-23T07:00:23.195Z,-2.00
2019-01-23T07:02:53.476Z,-2.00
2019-01-23T07:05:24.539Z,-2.10
2019-01-23T07:07:53.875Z,-2.00
2019-01-23T07:10:24.376Z,-1.90
2019-01-23T07:12:53.707Z,-1.90
2019-01-23T07:15:23.163Z,-1.90
2019-01-23T07:17:52.848Z,-1.90
2019-01-23T07:20:24.584Z,-1.90
2019-01-23T07:22:54.258Z,-1.90
2019-01-23T07:25:23.708Z,-2.00
2019-01-23T07:27:53.350Z,-2.00
2019-01-23T07:30:31.698Z,-2.00
2019-01-23T07:33:01.005Z,-2.00
2019-01-23T07:35:30.316Z,-1.90
2019-01-23T07:37:59.775Z,-2.00
2019-01-23T07:40:29.142Z,-1.90
2019-01-23T07:42:58.442Z,-2.00
2019-01-23T07:45:28.503Z,-2.00
2019-01-23T07:47:57.804Z,-2.00
2019-01-23T07:50:27.119Z,-2.00
2019-01-23T07:52:56.491Z,-2.00
2019-01-23T07:55:25.875Z,-2.10
2019-01-23T07:57:55.176Z,-2.10
2019-01-23T08:00:31.319Z,-2.00
2019-01-23T08:02:58.262Z,-1.90
2019-01-23T08:05:27.758Z,-2.00
2019-01-23T08:07:57.114Z,-2.00
2019-01-23T08:10:26.475Z,-2.00
2019-01-23T08:12:55.850Z,-2.10
2019-01-23T08:15:30.716Z,-2.10
2019-01-23T08:18:00.091Z,-2.10
2019-01-23T08:20:30.335Z,-2.10
2019-01-23T08:22:59.749Z,-2.10
2019-01-23T08:25:29.044Z,-2.00
2019-01-23T08:27:58.350Z,-2.10
2019-01-23T08:30:27.704Z,-2.00
2019-01-23T08:32:57.013Z,-2.00
2019-01-23T08:35:26.453Z,-2.00
2019-01-23T08:37:55.790Z,-2.00
2019-01-23T08:40:25.106Z,-2.10
2019-01-23T08:42:54.432Z,-2.00
2019-01-23T08:45:23.950Z,-2.10
2019-01-23T08:47:53.332Z,-2.00
2019-01-23T08:50:31.847Z,-2.00
2019-01-23T08:53:01.147Z,-1.90
2019-01-23T08:55:30.446Z,-2.10
2019-01-23T08:57:59.804Z,-2.00
2019-01-23T09:00:29.218Z,-2.00
2019-01-23T09:02:58.610Z,-2.00
2019-01-23T09:05:28.019Z,-1.90
2019-01-23T09:07:57.374Z,-2.00
2019-01-23T09:10:28.414Z,-2.10
2019-01-23T09:12:57.839Z,-2.10
2019-01-23T09:15:27.151Z,-2.00
2019-01-23T09:17:56.447Z,-2.00
2019-01-23T09:20:25.950Z,-2.00
2019-01-23T09:22:55.444Z,-2.00
2019-01-23T09:25:26.695Z,-2.00
2019-01-23T09:27:56.099Z,-1.90
2019-01-23T09:30:34.927Z,-2.00
2019-01-23T09:33:30.075Z,-1.90
2019-01-23T09:36:14.826Z,-1.80
2019-01-23T09:39:09.866Z,-1.80
2019-01-23T09:42:19.087Z,-1.70
2019-01-23T09:45:08.400Z,-1.80
2019-01-23T09:47:59.083Z,-1.80
2019-01-23T09:50:43.275Z,-1.70
2019-01-23T09:53:19.687Z,-1.70
2019-01-23T09:55:49.142Z,-1.60
2019-01-23T09:58:18.515Z,-1.70
2019-01-23T10:00:47.859Z,-1.70
2019-01-23T10:03:22.975Z,-1.70
2019-01-23T10:05:48.549Z,-1.60
2019-01-23T10:08:18.178Z,-1.70
2019-01-23T10:10:47.490Z,-1.70
2019-01-23T10:13:16.843Z,-1.70
2019-01-23T10:16:30.516Z,-1.90
2019-01-23T10:18:59.861Z,-1.80
2019-01-23T10:21:29.157Z,-1.70
2019-01-23T10:23:58.471Z,-1.60
2019-01-23T10:26:27.826Z,-1.60
2019-01-23T10:28:58.980Z,-1.80
2019-01-23T10:31:28.286Z,-2.00
2019-01-23T10:33:57.642Z,-1.90
2019-01-23T10:36:27.043Z,-2.00
2019-01-23T10:38:56.387Z,-1.90
2019-01-23T10:41:25.682Z,-1.80
2019-01-23T10:43:55.048Z,-1.70
2019-01-23T10:46:24.555Z,-1.70
2019-01-23T10:48:53.890Z,-1.80
2019-01-23T10:51:23.196Z,-1.60
2019-01-23T10:53:53.140Z,-1.70
2019-01-23T10:56:22.484Z,-1.70
2019-01-23T10:58:52.008Z,-1.70
2019-01-23T11:01:21.363Z,-1.70
2019-01-23T11:03:50.679Z,-1.60
2019-01-23T11:06:21.144Z,-1.60
2019-01-23T11:08:50.494Z,-1.60
2019-01-23T11:11:19.841Z,-1.70
2019-01-23T11:13:49.130Z,-1.70
2019-01-23T11:16:18.463Z,-1.70
2019-01-23T11:18:47.865Z,-1.60
2019-01-23T11:21:17.682Z,-1.50
2019-01-23T11:23:47.278Z,-1.70
2019-01-23T11:26:16.607Z,-1.80
2019-01-23T11:28:46.084Z,-1.90
2019-01-23T11:31:20.337Z,-2.00
2019-01-23T11:33:46.525Z,-2.00
2019-01-23T11:36:16.130Z,-1.90
2019-01-23T11:38:45.622Z,-1.80
2019-01-23T11:41:15.211Z,-1.90
2019-01-23T11:43:44.520Z,-1.90
2019-01-23T11:46:13.983Z,-1.70
2019-01-23T11:48:43.315Z,-1.70
2019-01-23T11:51:12.618Z,-1.70
2019-01-23T11:53:41.989Z,-1.80
2019-01-23T11:56:11.387Z,-1.60
2019-01-23T11:58:40.711Z,-1.70
2019-01-23T12:01:10.162Z,-1.90
2019-01-23T12:03:39.466Z,-2.00
2019-01-23T12:06:08.780Z,-2.00
2019-01-23T12:08:38.199Z,-2.00
2019-01-23T12:11:07.671Z,-2.00
2019-01-23T12:13:36.979Z,-2.20
2019-01-23T12:16:06.290Z,-2.10
2019-01-23T12:18:35.869Z,-2.20
2019-01-23T12:21:05.281Z,-2.20
2019-01-23T12:23:35.291Z,-2.20
2019-01-23T12:26:05.501Z,-2.30
2019-01-23T12:28:35.313Z,-2.30
2019-01-23T12:31:04.919Z,-2.20
2019-01-23T12:33:34.295Z,-2.30
2019-01-23T12:36:03.747Z,-2.20
2019-01-23T12:38:33.432Z,-2.20
2019-01-23T12:41:02.763Z,-2.20
2019-01-23T12:43:32.237Z,-2.20
2019-01-23T12:46:01.695Z,-2.40
2019-01-23T12:48:31.331Z,-2.40
2019-01-23T12:51:01.030Z,-2.50
2019-01-23T12:53:30.383Z,-2.60
2019-01-23T12:56:00.183Z,-2.60
2019-01-23T12:58:29.539Z,-2.60
2019-01-23T13:00:59.030Z,-2.60
2019-01-23T13:03:28.513Z,-2.50
2019-01-23T13:05:59.420Z,-2.40
2019-01-23T13:08:31.479Z,-2.50
2019-01-23T13:11:00.839Z,-2.40
2019-01-23T13:13:30.166Z,-2.40
2019-01-23T13:15:59.890Z,-2.50
2019-01-23T13:18:29.599Z,-2.50
2019-01-23T13:20:59.077Z,-2.50
2019-01-23T13:23:29.017Z,-2.50
2019-01-23T13:25:58.934Z,-2.50
2019-01-23T13:28:28.640Z,-2.60
2019-01-23T13:31:01.532Z,-2.50
2019-01-23T13:33:31.334Z,-2.50
2019-01-23T13:36:00.941Z,-2.50
2019-01-23T13:38:30.267Z,-2.50
2019-01-23T13:41:00.103Z,-2.60
2019-01-23T13:43:29.700Z,-2.60
2019-01-23T13:45:59.025Z,-2.50
2019-01-23T13:48:28.670Z,-2.60
2019-01-23T13:50:58.377Z,-2.70
2019-01-23T13:53:27.788Z,-2.60
2019-01-23T13:56:00.253Z,-2.60
2019-01-23T13:58:30.271Z,-2.50
2019-01-23T14:00:59.571Z,-2.50
2019-01-23T14:03:28.948Z,-2.50
2019-01-23T14:05:58.830Z,-2.60
2019-01-23T14:08:29.215Z,-2.60
2019-01-23T14:10:58.517Z,-2.50
2019-01-23T14:13:27.832Z,-2.50
2019-01-23T14:15:57.159Z,-2.60
2019-01-23T14:18:26.818Z,-2.60
2019-01-23T14:20:56.178Z,-2.60
2019-01-23T14:23:25.521Z,-2.50
2019-01-23T14:25:55.136Z,-2.40
2019-01-23T14:28:24.847Z,-2.50
2019-01-23T14:30:54.292Z,-2.50
2019-01-23T14:33:23.650Z,-2.50
2019-01-23T14:35:53.144Z,-2.50
2019-01-23T14:38:22.501Z,-2.40
2019-01-23T14:40:51.895Z,-2.60
2019-01-23T14:43:21.198Z,-2.50
2019-01-23T14:45:50.649Z,-2.60
2019-01-23T14:48:19.987Z,-2.70
2019-01-23T14:50:49.485Z,-2.60
2019-01-23T14:53:19.167Z,-2.60
2019-01-23T14:55:48.539Z,-2.60
2019-01-23T14:58:17.934Z,-2.60
2019-01-23T15:00:47.314Z,-2.60
2019-01-23T15:03:16.708Z,-2.50
2019-01-23T15:05:46.205Z,-2.60
2019-01-23T15:08:15.511Z,-2.60
2019-01-23T15:10:44.873Z,-2.60
2019-01-23T15:13:14.181Z,-2.60
2019-01-23T15:15:43.872Z,-2.50
2019-01-23T15:18:13.558Z,-2.50
2019-01-23T15:20:43.051Z,-2.70
2019-01-23T15:23:12.850Z,-2.70
2019-01-23T15:25:42.430Z,-2.60
2019-01-23T15:28:11.935Z,-2.60
2019-01-23T15:30:41.496Z,-2.60
2019-01-23T15:33:10.990Z,-2.80
2019-01-23T15:35:40.848Z,-2.80
2019-01-23T15:38:10.710Z,-2.70
2019-01-23T15:40:40.262Z,-2.70
2019-01-23T15:43:09.848Z,-2.80
2019-01-23T15:45:39.575Z,-2.80
2019-01-23T15:48:09.293Z,-2.80
2019-01-23T15:50:39.195Z,-2.80
2019-01-23T15:53:08.859Z,-2.80
2019-01-23T15:55:38.597Z,-2.80
2019-01-23T15:58:08.537Z,-2.90
2019-01-23T16:00:38.340Z,-3.00
2019-01-23T16:03:07.855Z,-2.90
2019-01-23T16:05:37.642Z,-2.90
2019-01-23T16:08:07.205Z,-2.90
2019-01-23T16:10:37.588Z,-3.00
2019-01-23T16:13:07.337Z,-2.90
2019-01-23T16:15:36.894Z,-2.90
2019-01-23T16:18:06.380Z,-2.80
2019-01-23T16:20:36.092Z,-2.80
2019-01-23T16:23:06.235Z,-2.90
2019-01-23T16:25:36.457Z,-2.80
2019-01-23T16:28:07.322Z,-2.80
2019-01-23T16:30:37.471Z,-2.70
2019-01-23T16:33:07.046Z,-2.70
2019-01-23T16:35:38.798Z,-2.70
2019-01-23T16:38:08.338Z,-2.70
2019-01-23T16:40:37.843Z,-2.80
2019-01-23T16:43:07.445Z,-2.90
2019-01-23T16:45:40.183Z,-2.80
2019-01-23T16:48:09.810Z,-2.90
2019-01-23T16:50:39.579Z,-2.90
2019-01-23T16:53:08.904Z,-2.90
2019-01-23T16:55:38.640Z,-3.00
2019-01-23T16:58:09.011Z,-2.90
2019-01-23T17:00:38.550Z,-3.00
2019-01-23T17:03:08.023Z,-3.00
2019-01-23T17:05:37.492Z,-3.00
2019-01-23T17:08:06.952Z,-3.00
2019-01-23T17:10:36.336Z,-3.00
2019-01-23T17:13:05.835Z,-3.00
2019-01-23T17:15:35.360Z,-3.00
2019-01-23T17:18:04.875Z,-3.00
2019-01-23T17:20:40.003Z,-3.00
2019-01-23T17:23:09.526Z,-3.00
2019-01-23T17:25:59.790Z,-3.00
2019-01-23T17:28:29.099Z,-3.10
2019-01-23T17:30:58.507Z,-3.00
2019-01-23T17:33:27.843Z,-3.10
2019-01-23T17:36:20.795Z,-3.10
2019-01-23T17:38:50.138Z,-3.10
2019-01-23T17:41:19.443Z,-3.00
2019-01-23T17:43:49.111Z,-3.00
2019-01-23T17:46:18.771Z,-3.10
2019-01-23T17:48:48.135Z,-3.10
2019-01-23T17:51:17.523Z,-3.10
2019-01-23T17:53:46.859Z,-3.10
2019-01-23T17:56:16.234Z,-3.10
2019-01-23T17:58:45.604Z,-3.20
2019-01-23T18:01:15.052Z,-3.20
2019-01-23T18:03:44.420Z,-3.10
2019-01-23T18:06:13.832Z,-3.10
2019-01-23T18:08:43.176Z,-3.10
2019-01-23T18:11:13.515Z,-3.10
2019-01-23T18:13:42.883Z,-3.10
2019-01-23T18:16:12.375Z,-3.20
2019-01-23T18:18:41.675Z,-3.30
2019-01-23T18:21:10.989Z,-3.30
2019-01-23T18:23:40.332Z,-3.30
2019-01-23T18:26:09.644Z,-3.40
2019-01-23T18:28:39.224Z,-3.40
2019-01-23T18:31:17.403Z,-3.30
2019-01-23T18:33:49.963Z,-3.20
2019-01-23T18:36:46.785Z,-3.30
2019-01-23T18:39:33.956Z,-3.30
2019-01-23T18:42:29.095Z,-3.40
2019-01-23T18:45:04.704Z,-3.50
2019-01-23T18:47:55.531Z,-3.40
2019-01-23T18:50:43.267Z,-3.30
2019-01-23T18:53:12.827Z,-3.40
2019-01-23T18:55:42.531Z,-3.50
2019-01-23T18:58:12.140Z,-3.50
2019-01-23T19:00:42.123Z,-3.50
2019-01-23T19:03:11.453Z,-3.50
2019-01-23T19:05:40.972Z,-3.40
2019-01-23T19:08:10.279Z,-3.40
2019-01-23T19:10:39.870Z,-3.40
2019-01-23T19:13:10.235Z,-3.40
2019-01-23T19:15:39.538Z,-3.40
2019-01-23T19:18:08.867Z,-3.30
2019-01-23T19:20:38.178Z,-3.30
2019-01-23T19:23:07.488Z,-3.20
2019-01-23T19:25:36.875Z,-3.40
2019-01-23T19:28:06.203Z,-3.50
2019-01-23T19:30:35.518Z,-3.40
2019-01-23T19:33:04.924Z,-3.30
2019-01-23T19:35:34.342Z,-3.40
2019-01-23T19:38:03.671Z,-3.40
2019-01-23T19:40:33.075Z,-3.40
2019-01-23T19:43:02.396Z,-3.40
2019-01-23T19:45:32.166Z,-3.40
2019-01-23T19:48:01.521Z,-3.50
2019-01-23T19:50:30.981Z,-3.60
2019-01-23T19:53:00.771Z,-3.60
2019-01-23T19:55:30.180Z,-3.50
2019-01-23T19:58:00.727Z,-3.50
2019-01-23T20:00:30.028Z,-3.50
2019-01-23T20:02:59.579Z,-3.50
2019-01-23T20:05:28.972Z,-3.30
2019-01-23T20:07:58.406Z,-3.40
2019-01-23T20:10:27.755Z,-3.50
2019-01-23T20:12:57.194Z,-3.50
2019-01-23T20:15:26.494Z,-3.50
2019-01-23T20:17:56.778Z,-3.50
2019-01-23T20:20:26.075Z,-3.50
2019-01-23T20:22:55.407Z,-3.60
2019-01-23T20:25:26.119Z,-3.60
2019-01-23T20:27:55.691Z,-3.50
2019-01-23T20:30:28.247Z,-3.50
2019-01-23T20:32:57.617Z,-3.60
2019-01-23T20:35:26.982Z,-3.60
2019-01-23T20:37:56.356Z,-3.40
2019-01-23T20:40:25.863Z,-3.50
2019-01-23T20:42:55.422Z,-3.60
2019-01-23T20:45:25.462Z,-3.60
2019-01-23T20:47:54.812Z,-3.60
2019-01-23T20:50:26.551Z,-3.60
2019-01-23T20:52:56.039Z,-3.60
2019-01-23T20:55:25.716Z,-3.60
2019-01-23T20:57:55.028Z,-3.60
2019-01-23T21:00:27.696Z,-3.60
2019-01-23T21:02:56.998Z,-3.60
2019-01-23T21:05:26.438Z,-3.50
2019-01-23T21:07:55.821Z,-3.60
2019-01-23T21:10:26.914Z,-3.60
2019-01-23T21:12:57.157Z,-3.60
2019-01-23T21:15:30.342Z,-3.60
2019-01-23T21:17:59.709Z,-3.50
2019-01-23T21:20:30.033Z,-3.70
2019-01-23T21:22:59.344Z,-3.70
2019-01-23T21:25:28.688Z,-3.60
2019-01-23T21:27:58.075Z,-3.60
2019-01-23T21:30:28.274Z,-3.70
2019-01-23T21:32:57.589Z,-3.70
2019-01-23T21:35:27.947Z,-3.60
2019-01-23T21:37:57.555Z,-3.50
2019-01-23T21:40:29.539Z,-3.60
2019-01-23T21:42:58.906Z,-3.60
2019-01-23T21:45:28.854Z,-3.60
2019-01-23T21:47:58.927Z,-3.60
2019-01-23T21:50:28.482Z,-3.60
2019-01-23T21:52:57.827Z,-3.50
2019-01-23T21:55:27.258Z,-3.50
2019-01-23T21:57:56.661Z,-3.60
2019-01-23T22:00:29.214Z,-3.70
2019-01-23T22:03:00.613Z,-3.70
2019-01-23T22:05:29.995Z,-3.70
2019-01-23T22:07:59.386Z,-3.70
2019-01-23T22:10:28.762Z,-3.70
2019-01-23T22:12:58.052Z,-3.70
2019-01-23T22:15:32.207Z,-3.70
2019-01-23T22:18:01.530Z,-3.80
2019-01-23T22:20:30.815Z,-3.70
2019-01-23T22:23:00.099Z,-3.70
2019-01-23T22:25:29.476Z,-3.60
2019-01-23T22:27:58.806Z,-3.70
2019-01-23T22:30:30.430Z,-3.60
2019-01-23T22:32:59.763Z,-3.60
2019-01-23T22:35:29.240Z,-3.60
2019-01-23T22:37:59.065Z,-3.60
2019-01-23T22:40:28.442Z,-3.60
2019-01-23T22:42:57.922Z,-3.70
2019-01-23T22:45:27.258Z,-3.70
2019-01-23T22:47:56.691Z,-3.60
2019-01-23T22:50:27.580Z,-3.70
2019-01-23T22:52:56.965Z,-3.60
2019-01-23T22:55:26.272Z,-3.60
2019-01-23T22:57:55.640Z,-3.60
2019-01-23T23:00:28.020Z,-3.60
2019-01-23T23:02:59.190Z,-3.70
2019-01-23T23:05:28.485Z,-3.70
2019-01-23T23:07:57.887Z,-3.80
2019-01-23T23:10:27.248Z,-3.70
2019-01-23T23:12:57.231Z,-3.60
2019-01-23T23:15:26.509Z,-3.60
2019-01-23T23:17:55.783Z,-3.70
2019-01-23T23:20:25.110Z,-3.60
2019-01-23T23:22:54.433Z,-3.60
2019-01-23T23:25:23.725Z,-3.60
2019-01-23T23:27:53.111Z,-3.50
2019-01-23T23:30:24.374Z,-3.50
2019-01-23T23:32:53.859Z,-3.50
2019-01-23T23:35:23.279Z,-3.50
2019-01-23T23:37:52.842Z,-3.50
2019-01-23T23:40:22.274Z,-3.50
2019-01-23T23:42:51.920Z,-3.10
2019-01-23T23:45:21.453Z,-3.40
2019-01-23T23:47:50.759Z,-3.50
2019-01-23T23:50:20.091Z,-3.50
2019-01-23T23:52:49.402Z,-3.60
2019-01-23T23:55:18.685Z,-3.70
2019-01-23T23:57:47.978Z,-3.60
